Time;durP1;ratioP1;P1;durP2;ratioP2;P2;SDS_P1;SDS_P2;PMS_P1;PMS_P2;Temp;Humidity;BMP_temperature;BMP_pressure;BME280_temperature;BME280_humidity;BME280_pressure;Samples;Min_cycle;Max_cycle;Signal;HPM_P1;HPM_P2
2022/01/24 00:02:26;;;;;;;5.50;3.93;;;2.50;99.90;1.40;101828;;;;583280;244;24108;-83
2022/01/24 00:04:53;;;;;;;6.83;3.90;;;2.50;99.90;1.40;101828;;;;583245;244;24117;-81
2022/01/24 00:07:22;;;;;;;7.00;3.87;;;2.40;99.90;1.30;101824;;;;583071;246;24156;-83
2022/01/24 00:09:51;;;;;;;5.73;3.90;;;2.40;99.90;1.30;101817;;;;583193;246;24102;-84
2022/01/24 00:12:22;;;;;;;5.60;3.77;;;2.40;99.90;1.30;101816;;;;574347;246;24157;-83
2022/01/24 00:15:06;;;;;;;6.97;3.50;;;2.40;99.90;1.40;101816;;;;584143;244;24101;-80
2022/01/24 00:17:42;;;;;;;5.57;3.47;;;2.40;99.90;1.30;101812;;;;583534;246;24076;-82
2022/01/24 00:28:10;;;;;;;3.60;2.03;;;2.30;99.90;1.30;101821;;;;575042;246;24103;-84
2022/01/24 00:30:38;;;;;;;3.77;2.33;;;2.30;99.90;1.20;101822;;;;583799;243;24068;-81
2022/01/24 00:33:09;;;;;;;7.20;3.77;;;2.30;99.90;1.20;101817;;;;574810;244;24066;-82
2022/01/24 00:35:33;;;;;;;6.53;3.63;;;2.30;99.90;1.20;101810;;;;574294;247;24062;-81
2022/01/24 00:38:05;;;;;;;4.93;2.60;;;2.30;99.90;1.30;101813;;;;572377;247;24047;-81
2022/01/24 00:40:33;;;;;;;5.30;3.10;;;2.30;99.90;1.20;101813;;;;583166;244;24129;-84
2022/01/24 00:42:59;;;;;;;5.03;3.50;;;2.30;99.90;1.30;101826;;;;583088;246;24109;-83
2022/01/24 00:53:29;;;;;;;5.87;3.33;;;2.40;99.90;1.30;101826;;;;583217;243;24074;-81
2022/01/24 00:55:44;;;;;;;5.53;3.57;;;2.40;99.90;1.30;101820;;;;571909;246;24072;-82
2022/01/24 00:58:12;;;;;;;6.77;4.03;;;2.40;99.90;1.30;101821;;;;583211;243;24073;-81
2022/01/24 01:00:40;;;;;;;3.27;2.73;;;2.40;99.90;1.30;101822;;;;583697;244;24081;-81
2022/01/24 01:03:08;;;;;;;4.23;3.07;;;2.40;99.90;1.30;101823;;;;574361;247;24075;-81
2022/01/24 01:06:03;;;;;;;7.10;3.23;;;2.40;99.90;1.30;101825;;;;583315;246;24065;-83
2022/01/24 01:18:07;;;;;;;4.50;3.47;;;2.40;99.90;1.30;101824;;;;574004;247;24081;-81
2022/01/24 01:19:01;;;;;;;5.50;3.00;;;2.50;99.90;1.40;101837;;;;574826;246;24060;-83
2022/01/24 01:21:29;;;;;;;7.00;2.77;;;2.50;99.90;1.40;101840;;;;574094;245;24135;-82
2022/01/24 01:23:59;;;;;;;3.87;3.30;;;2.40;99.90;1.40;101850;;;;583381;243;24071;-82
2022/01/24 01:26:37;;;;;;;6.20;3.33;;;2.40;99.90;1.40;101848;;;;575869;245;24066;-82
2022/01/24 01:29:08;;;;;;;4.17;3.03;;;2.50;99.90;1.40;101857;;;;573209;246;24057;-81
2022/01/24 01:34:25;;;;;;;8.93;4.13;;;2.40;99.90;1.40;101855;;;;584509;242;24112;-80
2022/01/24 01:37:07;;;;;;;6.50;2.83;;;2.40;99.90;1.40;101842;;;;573394;247;24053;-80
2022/01/24 01:52:42;;;;;;;5.17;3.23;;;2.50;99.90;1.40;101832;;;;575398;246;24075;-84
2022/01/24 01:57:40;;;;;;;5.67;3.43;;;2.40;99.90;1.40;101807;;;;584106;244;24063;-84
2022/01/24 02:00:08;;;;;;;4.90;2.93;;;2.50;99.90;1.40;101795;;;;572821;247;24058;-84
2022/01/24 02:02:39;;;;;;;5.10;3.27;;;2.50;99.90;1.40;101806;;;;583605;241;24110;-83
2022/01/24 02:05:04;;;;;;;5.30;2.93;;;2.50;99.90;1.40;101810;;;;583310;246;24054;-83
2022/01/24 02:07:32;;;;;;;4.13;2.93;;;2.50;99.90;1.40;101798;;;;583475;244;24117;-81
2022/01/24 02:10:00;;;;;;;4.27;2.57;;;2.50;99.90;1.40;101794;;;;583219;246;24106;-81
2022/01/24 02:12:30;;;;;;;4.30;2.93;;;2.50;99.90;1.40;101798;;;;583665;244;24058;-80
2022/01/24 02:14:59;;;;;;;3.13;2.83;;;2.50;99.90;1.40;101805;;;;572474;244;24079;-81
2022/01/24 02:17:35;;;;;;;4.73;3.60;;;2.50;99.90;1.40;101801;;;;583565;246;24105;-81
2022/01/24 02:25:01;;;;;;;5.93;2.97;;;2.50;99.90;1.50;101796;;;;583266;246;24057;-81
2022/01/24 02:27:24;;;;;;;8.83;3.53;;;2.50;99.90;1.40;101794;;;;572651;246;24113;-82
2022/01/24 02:30:09;;;;;;;6.17;3.17;;;2.50;99.90;1.40;101785;;;;572482;244;24067;-83
2022/01/24 02:32:21;;;;;;;6.33;3.40;;;2.50;99.90;1.40;101785;;;;573669;247;24115;-83
2022/01/24 02:34:50;;;;;;;5.53;3.70;;;2.50;99.90;1.40;101773;;;;580540;247;24062;-83
2022/01/24 02:37:18;;;;;;;6.90;3.70;;;2.50;99.90;1.40;101774;;;;584757;243;24065;-85
2022/01/24 02:40:31;;;;;;;5.60;3.80;;;2.50;99.90;1.40;101771;;;;584661;245;24081;-84
2022/01/24 02:52:57;;;;;;;7.83;4.97;;;2.50;99.90;1.40;101750;;;;572597;246;24064;-85
2022/01/24 02:55:28;;;;;;;7.10;4.60;;;2.50;99.90;1.40;101762;;;;583565;243;24105;-84
2022/01/24 02:57:56;;;;;;;5.43;4.00;;;2.50;99.90;1.40;101750;;;;572582;246;24110;-81
2022/01/24 03:00:21;;;;;;;6.67;4.03;;;2.50;99.90;1.40;101758;;;;574156;247;25150;-82
2022/01/24 03:02:52;;;;;;;6.37;3.93;;;2.40;99.90;1.40;101750;;;;583859;246;24107;-84
2022/01/24 03:05:17;;;;;;;7.73;4.10;;;2.40;99.90;1.40;101752;;;;583638;245;24080;-84
2022/01/24 03:07:45;;;;;;;9.60;4.30;;;2.40;99.90;1.40;101758;;;;583820;245;24152;-86
2022/01/24 03:10:24;;;;;;;8.07;4.40;;;2.40;99.90;1.40;101757;;;;583894;245;25144;-83
2022/01/24 03:12:47;;;;;;;8.80;4.40;;;2.40;99.90;1.40;101763;;;;573520;247;24099;-82
2022/01/24 03:15:16;;;;;;;7.67;4.43;;;2.50;99.90;1.40;101757;;;;574892;246;24062;-82
2022/01/24 03:17:44;;;;;;;6.23;3.60;;;2.40;99.90;1.40;101750;;;;574158;247;24063;-85
2022/01/24 03:20:09;;;;;;;6.93;4.20;;;2.50;99.90;1.40;101752;;;;574742;246;24059;-82
2022/01/24 03:22:37;;;;;;;7.70;3.83;;;2.50;99.90;1.40;101751;;;;583639;244;24053;-83
2022/01/24 03:25:08;;;;;;;7.20;3.13;;;2.50;99.90;1.40;101744;;;;583490;246;24054;-82
2022/01/24 03:27:33;;;;;;;4.93;3.87;;;2.50;99.90;1.40;101731;;;;571957;247;24066;-84
2022/01/24 03:30:01;;;;;;;7.73;3.30;;;2.40;99.90;1.40;101737;;;;574618;244;24121;-83
2022/01/24 03:32:30;;;;;;;6.43;4.30;;;2.40;99.90;1.40;101738;;;;583290;243;24156;-82
2022/01/24 03:34:57;;;;;;;8.30;3.60;;;2.40;99.90;1.40;101750;;;;583300;245;24061;-83
2022/01/24 03:37:25;;;;;;;4.40;3.57;;;2.40;99.90;1.40;101762;;;;583272;244;24059;-82
2022/01/24 03:39:53;;;;;;;5.27;3.30;;;2.50;99.90;1.40;101750;;;;583267;245;24100;-83
2022/01/24 03:42:21;;;;;;;4.10;2.73;;;2.50;99.90;1.40;101752;;;;583418;244;24070;-84
2022/01/24 03:44:56;;;;;;;4.30;3.30;;;2.50;99.90;1.40;101747;;;;574583;247;24109;-80
2022/01/24 03:50:00;;;;;;;6.07;5.03;;;2.50;99.90;1.50;101745;;;;580116;243;46119;-82
2022/01/24 03:52:30;;;;;;;6.77;4.33;;;2.50;99.90;1.50;101747;;;;584127;245;24081;-84
2022/01/24 03:54:55;;;;;;;5.93;3.53;;;2.60;99.90;1.50;101748;;;;575034;246;24146;-83
2022/01/24 03:57:25;;;;;;;6.30;3.27;;;2.60;99.90;1.50;101757;;;;583924;245;24100;-81
2022/01/24 03:59:50;;;;;;;4.43;2.97;;;2.60;99.90;1.60;101758;;;;583382;244;24077;-81
2022/01/24 04:02:19;;;;;;;6.00;4.97;;;2.70;99.90;1.60;101759;;;;569835;244;35147;-83
2022/01/24 04:04:50;;;;;;;5.33;3.73;;;2.60;99.90;1.60;101760;;;;583701;244;24104;-83
2022/01/24 04:07:15;;;;;;;5.37;3.00;;;2.70;99.90;1.60;101764;;;;583620;246;25104;-83
2022/01/24 04:09:43;;;;;;;3.53;3.23;;;2.70;99.90;1.60;101765;;;;583409;246;24051;-82
2022/01/24 04:12:11;;;;;;;3.60;2.93;;;2.70;99.90;1.60;101751;;;;583406;244;24067;-81
2022/01/24 04:14:55;;;;;;;4.43;2.40;;;2.70;99.90;1.70;101762;;;;574857;246;24074;-82
2022/01/24 04:22:15;;;;;;;2.90;2.63;;;2.80;99.90;1.70;101757;;;;572314;247;24109;-80
2022/01/24 04:24:42;;;;;;;3.23;2.53;;;2.80;99.90;1.70;101745;;;;572275;244;24073;-82
2022/01/24 04:27:13;;;;;;;2.77;2.27;;;2.80;99.90;1.70;101744;;;;583009;246;24136;-81
2022/01/24 04:29:38;;;;;;;3.67;2.60;;;2.80;99.90;1.70;101745;;;;583088;240;24087;-81
2022/01/24 04:32:09;;;;;;;3.53;2.33;;;2.80;99.90;1.70;101736;;;;574371;246;24095;-82
2022/01/24 04:34:36;;;;;;;3.60;2.67;;;2.80;99.90;1.70;101731;;;;573635;247;24124;-80
2022/01/24 04:37:04;;;;;;;3.43;2.13;;;2.80;99.90;1.70;101734;;;;573919;247;24059;-81
2022/01/24 04:39:29;;;;;;;2.67;2.17;;;2.70;99.90;1.70;101730;;;;574203;245;24125;-81
2022/01/24 04:41:59;;;;;;;3.10;2.30;;;2.70;99.90;1.70;101731;;;;583493;242;24055;-82
2022/01/24 04:44:49;;;;;;;2.10;1.90;;;2.70;99.90;1.70;101733;;;;583153;244;24110;-81
2022/01/24 04:47:13;;;;;;;2.80;2.33;;;2.70;99.90;1.70;101729;;;;581752;240;24075;-83
2022/01/24 04:52:19;;;;;;;5.37;2.40;;;2.70;99.90;1.70;101730;;;;574977;246;24046;-83
2022/01/24 04:54:46;;;;;;;2.43;1.90;;;2.70;99.90;1.70;101724;;;;574286;245;24114;-83
2022/01/24 04:57:11;;;;;;;3.07;2.27;;;2.70;99.90;1.70;101727;;;;574046;246;24148;-82
2022/01/24 04:59:39;;;;;;;3.27;2.23;;;2.70;99.90;1.70;101720;;;;574579;244;24060;-83
2022/01/24 05:02:07;;;;;;;4.10;2.90;;;2.70;99.90;1.70;101738;;;;575529;244;24103;-81
2022/01/24 05:04:38;;;;;;;3.80;2.53;;;2.80;99.90;1.80;101746;;;;584590;243;24095;-83
2022/01/24 05:07:05;;;;;;;3.20;2.47;;;2.80;99.90;1.80;101740;;;;575177;247;24124;-81
2022/01/24 05:09:36;;;;;;;5.73;2.83;;;2.80;99.90;1.80;101745;;;;575038;247;24074;-83
2022/01/24 05:12:04;;;;;;;4.00;2.67;;;2.80;99.90;1.80;101749;;;;583735;246;24136;-81
2022/01/24 05:25:34;;;;;;;4.33;2.47;;;3.00;99.90;1.90;101739;;;;575267;244;24051;-81
2022/01/24 05:27:59;;;;;;;3.90;2.47;;;3.00;99.90;1.90;101735;;;;572299;245;24149;-83
2022/01/24 05:30:27;;;;;;;4.10;2.70;;;3.00;99.90;1.90;101745;;;;583444;244;24070;-80
2022/01/24 05:32:55;;;;;;;4.13;2.77;;;3.00;99.90;2.00;101743;;;;583807;234;24108;-76
2022/01/24 05:35:23;;;;;;;5.03;4.37;;;3.00;99.90;2.00;101751;;;;572031;249;35331;-80
2022/01/24 05:37:51;;;;;;;4.67;3.43;;;3.10;99.90;2.00;101757;;;;575867;249;24076;-79
2022/01/24 05:40:19;;;;;;;4.00;2.90;;;3.00;99.90;2.00;101757;;;;588347;243;24083;-80
2022/01/24 05:42:47;;;;;;;6.93;4.45;;;3.10;99.90;2.00;101750;;;;583193;243;46101;-81
2022/01/24 05:45:15;;;;;;;4.77;3.70;;;3.10;99.90;2.10;101761;;;;576690;247;24090;-80
2022/01/24 05:47:43;;;;;;;5.37;3.67;;;3.10;99.90;2.10;101750;;;;576152;249;24098;-78
2022/01/24 05:50:14;;;;;;;4.80;3.10;;;3.10;99.90;2.10;101745;;;;588589;242;24113;-78
2022/01/24 05:52:39;;;;;;;3.73;3.37;;;3.10;99.90;2.10;101741;;;;567524;249;25142;-80
2022/01/24 05:55:10;;;;;;;6.93;3.27;;;3.10;99.90;2.10;101745;;;;575622;248;24126;-80
2022/01/24 05:57:38;;;;;;;5.30;3.03;;;3.10;99.90;2.00;101746;;;;567401;249;24084;-81
2022/01/24 06:00:06;;;;;;;4.37;3.40;;;3.00;99.90;2.00;101746;;;;575604;248;24086;-80
2022/01/24 06:02:34;;;;;;;3.73;3.17;;;3.10;99.90;2.00;101748;;;;570617;244;24187;-77
2022/01/24 06:05:05;;;;;;;6.50;3.60;;;3.10;99.90;2.00;101755;;;;575651;247;24134;-81
2022/01/24 06:07:30;;;;;;;3.30;2.70;;;3.00;99.90;2.00;101750;;;;565250;250;24190;-80
2022/01/24 06:09:58;;;;;;;4.70;3.00;;;3.00;99.90;1.90;101748;;;;565172;250;24111;-81
2022/01/24 06:12:26;;;;;;;2.47;2.27;;;3.00;99.90;1.90;101746;;;;574812;248;24089;-78
2022/01/24 06:14:54;;;;;;;3.53;2.60;;;2.90;99.90;1.90;101744;;;;566014;250;24134;-77
2022/01/24 06:17:22;;;;;;;3.60;2.23;;;2.90;99.90;1.80;101746;;;;565885;250;24075;-77
2022/01/24 06:19:49;;;;;;;3.83;2.30;;;2.90;99.90;1.80;101749;;;;565718;250;24188;-77
2022/01/24 06:22:21;;;;;;;2.17;1.77;;;2.80;99.90;1.80;101743;;;;565680;250;24153;-77
2022/01/24 06:24:45;;;;;;;5.23;2.63;;;2.80;99.90;1.80;101744;;;;565143;250;24232;-77
2022/01/24 06:27:13;;;;;;;3.17;2.50;;;2.80;99.90;1.80;101741;;;;560946;249;24160;-77
2022/01/24 06:29:42;;;;;;;3.13;2.43;;;2.80;99.90;1.80;101750;;;;574397;246;24115;-77
2022/01/24 06:32:10;;;;;;;2.93;2.57;;;2.80;99.90;1.80;101759;;;;583485;241;24128;-77
2022/01/24 06:34:38;;;;;;;3.83;2.07;;;2.80;99.90;1.80;101749;;;;573198;247;24060;-79
2022/01/24 06:37:06;;;;;;;2.27;2.03;;;2.80;99.90;1.90;101758;;;;573800;249;24094;-76
2022/01/24 06:39:34;;;;;;;4.03;2.53;;;2.90;99.90;1.90;101755;;;;565397;250;24144;-77
2022/01/24 06:42:13;;;;;;;2.70;2.47;;;2.90;99.90;1.90;101753;;;;565339;250;24087;-76
2022/01/24 06:44:33;;;;;;;4.53;2.70;;;2.90;99.90;1.90;101762;;;;560572;249;24110;-76
2022/01/24 06:47:01;;;;;;;2.80;2.50;;;2.90;99.90;1.90;101755;;;;574495;243;24055;-76
2022/01/24 06:49:29;;;;;;;3.57;2.97;;;2.90;99.90;1.90;101750;;;;574202;246;24178;-76
2022/01/24 06:51:59;;;;;;;3.53;2.93;;;2.90;99.90;1.90;101754;;;;565390;250;24130;-77
2022/01/24 06:54:24;;;;;;;3.30;2.90;;;2.90;99.90;1.90;101756;;;;565045;250;24120;-77
2022/01/24 06:56:52;;;;;;;3.30;2.33;;;2.90;99.90;1.90;101745;;;;565374;250;24100;-80
2022/01/24 06:59:20;;;;;;;5.83;2.83;;;2.90;99.90;1.90;101755;;;;565287;250;24090;-76
2022/01/24 07:01:48;;;;;;;4.60;2.80;;;2.90;99.90;1.90;101758;;;;565270;250;24086;-79
2022/01/24 07:04:16;;;;;;;3.80;2.43;;;2.90;99.90;1.90;101752;;;;565673;250;24097;-78
2022/01/24 07:06:45;;;;;;;10.57;3.90;;;2.90;99.90;1.90;101760;;;;565630;248;24136;-78
2022/01/24 07:09:13;;;;;;;4.30;2.50;;;2.80;99.90;1.90;101757;;;;583870;245;24057;-77
2022/01/24 07:11:44;;;;;;;5.33;2.17;;;2.90;99.90;1.90;101759;;;;574823;249;24155;-78
2022/01/24 07:14:12;;;;;;;2.70;1.90;;;2.90;99.90;1.90;101765;;;;561706;250;24126;-77
2022/01/24 07:17:01;;;;;;;3.60;1.90;;;2.90;99.90;1.90;101758;;;;566236;250;24098;-80
2022/01/24 07:19:07;;;;;;;2.60;2.40;;;2.90;99.90;1.90;101763;;;;559625;249;24191;-79
2022/01/24 07:21:33;;;;;;;2.57;2.33;;;2.90;99.90;1.90;101751;;;;573064;244;24065;-82
2022/01/24 07:24:00;;;;;;;3.87;2.53;;;2.90;99.90;1.90;101755;;;;582225;245;24100;-78
2022/01/24 07:26:28;;;;;;;3.07;2.77;;;2.90;99.90;2.00;101757;;;;573305;247;24119;-76
2022/01/24 07:28:56;;;;;;;3.87;3.00;;;3.00;99.90;2.00;101751;;;;569905;247;24129;-78
2022/01/24 07:31:24;;;;;;;4.80;2.20;;;3.00;99.90;2.00;101755;;;;563289;249;24183;-77
2022/01/24 07:33:52;;;;;;;2.70;2.50;;;3.00;99.90;2.10;101757;;;;562859;251;24083;-79
2022/01/24 07:36:20;;;;;;;4.17;2.70;;;3.00;99.90;2.10;101752;;;;571952;247;24115;-80
2022/01/24 07:38:47;;;;;;;2.90;2.60;;;3.10;99.90;2.10;101759;;;;571088;250;24101;-80
2022/01/24 07:41:20;;;;;;;2.07;1.90;;;3.10;99.90;2.10;101750;;;;574414;248;24172;-78
2022/01/24 07:43:44;;;;;;;3.87;2.53;;;3.10;99.90;2.10;101751;;;;574056;249;24086;-76
2022/01/24 07:46:12;;;;;;;2.53;2.23;;;3.10;99.90;2.20;101746;;;;565866;250;24078;-78
2022/01/24 07:48:40;;;;;;;3.30;2.77;;;3.20;99.90;2.20;101741;;;;565853;250;24074;-77
2022/01/24 07:51:08;;;;;;;3.30;2.37;;;3.20;99.90;2.20;101741;;;;565672;250;24097;-77
2022/01/24 07:53:36;;;;;;;4.00;2.70;;;3.20;99.90;2.20;101743;;;;565678;250;24122;-80
2022/01/24 07:56:06;;;;;;;3.57;2.60;;;3.20;99.90;2.20;101748;;;;562764;249;24109;-77
2022/01/24 07:58:38;;;;;;;4.60;3.40;;;3.30;99.90;2.30;101749;;;;574168;248;24161;-78
2022/01/24 08:01:03;;;;;;;4.03;2.67;;;3.20;99.90;2.30;101751;;;;565171;250;24215;-81
2022/01/24 08:03:31;;;;;;;5.53;4.13;;;3.30;99.90;2.30;101736;;;;565225;250;24075;-81
2022/01/24 08:05:59;;;;;;;3.93;3.50;;;3.30;99.90;2.40;101733;;;;565037;250;24083;-77
2022/01/24 08:08:27;;;;;;;2.63;2.43;;;3.40;99.90;2.40;101730;;;;565261;250;24082;-77
2022/01/24 08:10:54;;;;;;;5.80;3.83;;;3.40;99.90;2.50;101733;;;;573713;248;24100;-80
2022/01/24 08:13:22;;;;;;;5.27;3.30;;;3.50;99.90;2.50;101737;;;;565332;250;24106;-81
2022/01/24 08:15:50;;;;;;;6.67;3.87;;;3.50;99.90;2.60;101746;;;;565072;250;24064;-78
2022/01/24 08:18:18;;;;;;;6.93;3.53;;;3.50;99.90;2.60;101740;;;;565022;250;24196;-77
2022/01/24 08:20:46;;;;;;;5.97;3.57;;;3.60;99.90;2.60;101735;;;;565059;250;24114;-77
2022/01/24 08:23:16;;;;;;;4.27;3.50;;;3.60;99.90;2.70;101728;;;;565036;250;24122;-79
2022/01/24 08:25:42;;;;;;;9.27;4.50;;;3.70;99.90;2.70;101737;;;;565199;250;24197;-78
2022/01/24 08:28:10;;;;;;;4.80;3.10;;;3.70;99.90;2.80;101728;;;;573600;248;24097;-77
2022/01/24 08:30:38;;;;;;;6.33;4.20;;;3.80;99.90;2.90;101730;;;;564957;250;25133;-77
2022/01/24 08:33:07;;;;;;;6.20;4.00;;;3.80;99.90;2.90;101723;;;;565064;250;24106;-77
2022/01/24 08:35:37;;;;;;;6.60;3.40;;;3.90;99.90;3.00;101726;;;;566562;250;24171;-79
2022/01/24 08:38:05;;;;;;;6.53;3.70;;;3.90;99.90;3.00;101728;;;;566215;250;25135;-80
2022/01/24 08:40:32;;;;;;;8.27;3.60;;;4.00;99.90;3.00;101734;;;;562617;250;24125;-78
2022/01/24 08:43:01;;;;;;;5.33;3.10;;;4.00;99.90;3.10;101732;;;;561064;249;24140;-79
2022/01/24 08:45:50;;;;;;;4.50;2.97;;;4.10;99.90;3.10;101717;;;;572831;247;24103;-80
2022/01/24 08:48:12;;;;;;;4.30;3.17;;;4.10;99.90;3.20;101733;;;;562687;250;25125;-80
2022/01/24 08:50:40;;;;;;;4.93;2.93;;;4.20;99.90;3.30;101739;;;;562632;250;24095;-80
2022/01/24 08:53:08;;;;;;;4.77;2.83;;;4.30;99.90;3.40;101731;;;;565266;250;24231;-79
2022/01/24 08:55:36;;;;;;;3.47;2.50;;;4.50;99.90;3.60;101734;;;;573896;248;24114;-80
2022/01/24 08:58:04;;;;;;;5.10;3.00;;;4.50;99.90;3.70;101736;;;;565178;250;24099;-79
2022/01/24 09:00:35;;;;;;;4.20;3.07;;;4.60;99.90;3.80;101728;;;;566568;247;24155;-78
2022/01/24 09:03:00;;;;;;;5.83;3.97;;;4.70;99.90;3.90;101730;;;;566298;250;24110;-77
2022/01/24 09:05:34;;;;;;;4.90;3.57;;;4.90;99.90;4.00;101739;;;;566546;248;24096;-79
2022/01/24 09:07:56;;;;;;;4.43;2.80;;;4.90;99.90;4.00;101733;;;;570336;250;24149;-78
2022/01/24 09:10:24;;;;;;;2.93;2.60;;;5.00;99.90;4.10;101736;;;;566096;250;24093;-77
2022/01/24 09:12:52;;;;;;;4.50;2.50;;;5.00;99.90;4.10;101736;;;;562823;250;24111;-77
2022/01/24 09:15:23;;;;;;;3.20;2.23;;;5.10;99.90;4.20;101735;;;;560629;249;24140;-77
2022/01/24 09:17:48;;;;;;;3.10;2.50;;;5.10;99.90;4.30;101733;;;;573667;245;24092;-78
2022/01/24 09:20:15;;;;;;;3.50;2.60;;;5.20;99.90;4.50;101732;;;;571961;248;24090;-77
2022/01/24 09:22:46;;;;;;;3.17;2.53;;;5.40;99.90;4.60;101734;;;;571576;248;24174;-79
2022/01/24 09:25:11;;;;;;;3.47;3.00;;;5.50;99.90;4.70;101734;;;;579909;242;24120;-76
2022/01/24 09:27:39;;;;;;;5.17;3.10;;;5.70;99.90;4.90;101733;;;;569384;248;24106;-76
2022/01/24 09:30:12;;;;;;;3.87;3.00;;;5.80;99.90;5.00;101721;;;;574745;246;24198;-78
2022/01/24 09:32:35;;;;;;;4.33;3.93;;;5.90;99.90;5.10;101725;;;;569486;249;24120;-80
2022/01/24 09:35:06;;;;;;;3.37;3.07;;;6.00;99.90;5.20;101729;;;;562522;249;24078;-77
2022/01/24 09:37:34;;;;;;;4.37;3.47;;;6.20;99.90;5.20;101722;;;;565404;250;24108;-80
2022/01/24 09:40:02;;;;;;;6.33;3.80;;;6.20;99.90;5.30;101721;;;;565391;250;24125;-80
2022/01/24 09:42:30;;;;;;;5.27;3.60;;;6.20;99.90;5.40;101721;;;;573634;250;24153;-81
2022/01/24 09:44:58;;;;;;;4.17;3.50;;;6.30;99.90;5.40;101713;;;;560239;249;24143;-80
2022/01/24 09:47:25;;;;;;;5.73;3.80;;;6.30;99.90;5.30;101722;;;;562311;253;24133;-76
2022/01/24 09:49:53;;;;;;;6.07;3.90;;;6.30;99.90;5.20;101725;;;;578507;246;24105;-76
2022/01/24 09:52:22;;;;;;;5.97;3.37;;;6.10;99.90;5.10;101732;;;;558388;251;24132;-80
2022/01/24 09:54:54;;;;;;;4.03;3.40;;;6.10;99.90;5.00;101733;;;;575813;248;24114;-79
2022/01/24 09:57:22;;;;;;;4.20;3.47;;;6.00;99.90;4.90;101730;;;;567316;246;24123;-77
2022/01/24 09:59:46;;;;;;;5.47;3.70;;;5.90;99.90;4.80;101725;;;;567267;249;24133;-77
2022/01/24 10:02:14;;;;;;;4.17;3.73;;;5.80;99.90;4.80;101714;;;;575309;243;24102;-78
2022/01/24 10:04:41;;;;;;;5.13;3.50;;;5.80;99.90;4.80;101713;;;;562813;250;24152;-77
2022/01/24 10:07:13;;;;;;;4.13;3.27;;;5.70;99.90;4.70;101711;;;;565721;249;24105;-77
2022/01/24 10:09:49;;;;;;;3.73;3.13;;;5.60;99.90;4.70;101714;;;;567336;249;24143;-81
2022/01/24 10:12:34;;;;;;;6.80;3.57;;;5.60;99.90;4.70;101716;;;;566034;249;24111;-81
2022/01/24 10:17:44;;;;;;;3.47;2.93;;;5.70;99.90;4.80;101707;;;;574132;248;24101;-78
2022/01/24 10:20:24;;;;;;;3.63;3.17;;;5.70;99.90;4.70;101707;;;;560145;254;24142;-79
2022/01/24 10:23:24;;;;;;;5.97;3.73;;;5.70;99.90;4.70;101711;;;;572265;247;24073;-81
2022/01/24 10:26:04;;;;;;;5.73;3.47;;;5.70;99.90;4.70;101708;;;;578478;247;24099;-81
2022/01/24 10:28:30;;;;;;;6.10;3.87;;;5.70;99.90;4.70;101712;;;;581392;246;24123;-80
2022/01/24 10:31:10;;;;;;;3.80;3.47;;;5.60;99.90;4.80;101694;;;;565009;250;24146;-77
2022/01/24 10:34:07;;;;;;;5.63;4.10;;;5.70;99.90;4.90;101698;;;;565047;250;24150;-77
2022/01/24 10:36:41;;;;;;;4.37;3.57;;;5.80;99.90;5.00;101699;;;;565295;250;24139;-77
2022/01/24 10:39:33;;;;;;;5.67;3.80;;;6.10;99.90;5.10;101698;;;;565018;250;24096;-75
2022/01/24 10:45:05;;;;;;;7.03;3.80;;;6.10;99.90;5.20;101694;;;;583111;245;24092;-81
2022/01/24 10:47:33;;;;;;;5.20;3.47;;;6.10;99.90;5.20;101692;;;;570959;250;24105;-77
2022/01/24 10:50:01;;;;;;;4.03;3.10;;;6.10;99.90;5.20;101696;;;;564653;250;24097;-81
2022/01/24 10:52:30;;;;;;;8.17;3.10;;;6.20;99.90;5.20;101693;;;;564969;250;24192;-81
2022/01/24 10:55:12;;;;;;;4.20;2.90;;;6.20;99.90;5.30;101703;;;;565032;250;29399;-78
2022/01/24 10:57:40;;;;;;;4.27;2.90;;;6.20;99.90;5.40;101695;;;;562551;244;24148;-80
2022/01/24 11:00:08;;;;;;;4.27;2.87;;;6.30;99.90;5.40;101682;;;;563511;250;25304;-79
2022/01/24 11:02:40;;;;;;;4.90;3.20;;;6.40;99.90;5.60;101687;;;;574940;248;24136;-78
2022/01/24 11:05:17;;;;;;;3.17;2.83;;;6.50;99.90;5.70;101685;;;;573378;246;24066;-81
2022/01/24 11:07:50;;;;;;;5.17;3.67;;;6.60;99.90;5.70;101685;;;;567263;250;24097;-81
2022/01/24 11:10:22;;;;;;;5.93;3.50;;;6.60;99.90;5.80;101671;;;;556518;250;24176;-80
2022/01/24 11:12:46;;;;;;;4.07;3.17;;;6.70;99.90;5.80;101675;;;;565735;250;24094;-76
2022/01/24 11:15:14;;;;;;;6.40;3.27;;;6.70;99.90;5.90;101678;;;;563131;250;24089;-80
2022/01/24 11:17:42;;;;;;;5.13;3.67;;;6.80;99.90;6.00;101677;;;;565878;250;24099;-78
2022/01/24 11:20:13;;;;;;;6.27;3.40;;;6.90;99.90;6.10;101680;;;;574285;250;24173;-78
2022/01/24 11:22:42;;;;;;;4.20;3.77;;;7.00;99.90;6.10;101672;;;;565844;250;24130;-82
2022/01/24 11:25:08;;;;;;;4.47;3.37;;;7.00;99.90;6.10;101674;;;;573991;248;24119;-81
2022/01/24 11:27:37;;;;;;;6.40;4.00;;;7.00;99.90;6.20;101680;;;;570387;250;24156;-81
2022/01/24 11:30:08;;;;;;;3.30;2.97;;;7.10;99.90;6.30;101676;;;;565391;250;24115;-82
2022/01/24 11:32:51;;;;;;;4.50;3.00;;;7.20;99.90;6.50;101667;;;;562990;249;24110;-81
2022/01/24 11:35:41;;;;;;;3.63;3.07;;;7.30;99.90;6.50;101664;;;;562479;249;24172;-78
2022/01/24 11:38:38;;;;;;;3.40;3.10;;;7.40;99.90;6.40;101664;;;;565122;250;24116;-75
2022/01/24 11:41:32;;;;;;;4.13;2.97;;;7.30;99.90;6.40;101671;;;;560264;256;24137;-80
2022/01/24 11:44:07;;;;;;;4.93;2.73;;;7.30;99.90;6.20;101659;;;;581876;246;24092;-76
2022/01/24 11:46:52;;;;;;;5.03;3.13;;;7.10;99.90;6.10;101662;;;;565905;249;24086;-76
2022/01/24 11:49:34;;;;;;;2.80;2.60;;;7.00;99.90;6.00;101653;;;;562858;249;24104;-75
2022/01/24 11:52:10;;;;;;;3.53;2.97;;;6.80;99.90;5.90;101649;;;;576272;246;24044;-79
2022/01/24 11:54:51;;;;;;;2.80;2.50;;;6.80;99.90;5.70;101649;;;;577595;246;24054;-80
2022/01/24 11:57:36;;;;;;;4.40;2.80;;;6.70;99.90;5.60;101649;;;;574358;249;24110;-79
2022/01/24 12:00:07;;;;;;;4.17;2.93;;;6.50;99.90;5.40;101646;;;;566037;249;24122;-78
2022/01/24 12:02:40;;;;;;;4.27;2.77;;;6.30;99.90;5.20;101643;;;;574471;248;24120;-82
2022/01/24 12:05:15;;;;;;;5.03;3.13;;;6.00;99.90;5.10;101638;;;;560667;256;25176;-79
2022/01/24 12:07:49;;;;;;;4.03;2.63;;;6.00;99.90;4.90;101649;;;;571857;246;24070;-81
2022/01/24 12:10:44;;;;;;;3.87;3.40;;;5.90;99.90;4.80;101648;;;;577461;245;35317;-82
2022/01/24 12:13:00;;;;;;;2.97;2.63;;;5.70;99.90;4.70;101644;;;;569331;247;24110;-81
2022/01/24 12:15:39;;;;;;;3.47;2.30;;;5.60;99.90;4.60;101639;;;;566307;250;24114;-80
2022/01/24 12:18:06;;;;;;;3.10;2.70;;;5.50;99.90;4.50;101650;;;;574753;248;24112;-80
2022/01/24 12:20:42;;;;;;;3.57;3.10;;;5.40;99.90;4.40;101653;;;;563219;250;24093;-79
2022/01/24 12:23:20;;;;;;;4.00;2.57;;;5.40;99.90;4.30;101645;;;;566199;250;24106;-79
2022/01/24 12:26:05;;;;;;;3.30;2.97;;;5.30;99.90;4.30;101641;;;;575285;248;24070;-78
2022/01/24 12:28:27;;;;;;;3.03;2.37;;;5.20;99.90;4.20;101627;;;;566359;250;24105;-77
2022/01/24 12:30:58;;;;;;;2.73;2.20;;;5.10;99.90;4.10;101639;;;;565597;250;24087;-81
2022/01/24 12:33:39;;;;;;;3.27;2.70;;;5.00;99.90;4.00;101630;;;;562055;250;24098;-81
2022/01/24 12:36:09;;;;;;;3.63;2.70;;;4.90;99.90;3.90;101639;;;;565372;250;24094;-81
2022/01/24 12:38:52;;;;;;;3.63;3.00;;;4.90;99.90;3.90;101633;;;;562963;250;24138;-80
2022/01/24 12:41:35;;;;;;;6.90;4.23;;;4.80;99.90;3.80;101624;;;;565942;250;24111;-76
2022/01/24 12:44:11;;;;;;;5.33;4.00;;;4.70;99.90;3.80;101631;;;;565891;250;24116;-79
2022/01/24 12:46:26;;;;;;;4.90;3.83;;;4.70;99.90;3.70;101625;;;;565672;250;24102;-78
2022/01/24 12:48:53;;;;;;;4.70;3.80;;;4.70;99.90;3.70;101614;;;;562283;250;24121;-75
2022/01/24 12:51:23;;;;;;;7.83;4.17;;;4.60;99.90;3.70;101631;;;;572641;247;24063;-78
2022/01/24 12:53:52;;;;;;;7.50;4.97;;;4.60;99.90;3.60;101627;;;;565225;250;24140;-78
2022/01/24 12:56:25;;;;;;;6.13;3.93;;;4.50;99.90;3.60;101639;;;;565296;250;24104;-76
2022/01/24 12:58:53;;;;;;;3.90;3.30;;;4.50;99.90;3.60;101631;;;;573224;245;24081;-81
2022/01/24 13:01:24;;;;;;;7.20;4.23;;;4.50;99.90;3.60;101635;;;;572361;246;24067;-76
2022/01/24 13:04:02;;;;;;;5.20;3.27;;;4.50;99.90;3.60;101621;;;;565156;250;24106;-80